Friendship Village 's weather forecast for the week

Current weather in Friendship Village

Weather

Partly cloudy
Cloud cover 3%

Temperature

65°F
Minimum 59°F
Maximum 68°F

Wind

29 mph
Wind gust 47 mph

Humidity

69%
Dew point 55°F
Temp Feels Precip Humidity
00:00am Patchy rain possible 68°F 68°F 0.3 mm 72%
03:00am Partly cloudy 60°F 63°F 0 mm 71%
06:00am Sunny 67°F 55°F 0 mm 67%
09:00am Sunny 60°F 60°F 0 mm 64%
12:00pm Sunny 64°F 64°F 0 mm 56%
15:00pm Sunny 67°F 67°F 0 mm 55%
18:00pm Partly cloudy 67°F 67°F 0 mm 62%
21:00pm Partly cloudy 65°F 65°F 0 mm 69%
Temp Feels Precip Humidity
00:00am Partly cloudy 65°F 65°F 0 mm 66%
03:00am Partly cloudy 62°F 62°F 0 mm 65%
06:00am Partly cloudy 62°F 62°F 0 mm 59%
09:00am Sunny 65°F 65°F 0 mm 58%
12:00pm Partly cloudy 68°F 68°F 0 mm 53%
15:00pm Partly cloudy 69°F 69°F 0 mm 62%
18:00pm Partly cloudy 69°F 69°F 0 mm 66%
21:00pm Partly cloudy 67°F 67°F 0 mm 65%
Temp Feels Precip Humidity
00:00am Cloudy 66°F 66°F 0 mm 76%
03:00am Moderate or heavy rain shower 67°F 65°F 2.9 mm 83%
06:00am Moderate or heavy rain shower 71°F 65°F 4.7 mm 83%
09:00am Partly cloudy 67°F 67°F 0 mm 85%
12:00pm Partly cloudy 70°F 70°F 0 mm 85%
15:00pm Partly cloudy 72°F 76°F 0 mm 84%
18:00pm Partly cloudy 71°F 71°F 0 mm 87%
21:00pm Light rain shower 72°F 76°F 0.2 mm 84%
Temp Feels Precip Humidity
00:00am Patchy rain possible 71°F 71°F 0.4 mm 87%
03:00am Patchy rain possible 72°F 70°F 0.1 mm 89%
06:00am Patchy rain possible 64°F 69°F 0.1 mm 88%
09:00am Partly cloudy 72°F 76°F 0 mm 71%
12:00pm Partly cloudy 73°F 77°F 0 mm 67%
15:00pm Partly cloudy 70°F 70°F 0 mm 75%
18:00pm Partly cloudy 64°F 64°F 0 mm 80%
21:00pm Partly cloudy 63°F 63°F 0 mm 86%
Temp Feels Precip Humidity
00:00am Partly cloudy 63°F 63°F 0 mm 87%
03:00am Overcast 68°F 64°F 0 mm 88%
06:00am Cloudy 74°F 65°F 0 mm 87%
09:00am Patchy rain possible 68°F 68°F 0.6 mm 84%
12:00pm Moderate rain at times 71°F 71°F 0.6 mm 78%
15:00pm Partly cloudy 74°F 77°F 0 mm 74%
18:00pm Partly cloudy 74°F 78°F 0 mm 76%
21:00pm Moderate or heavy rain shower 73°F 77°F 6.1 mm 83%
Temp Feels Precip Humidity
00:00am Torrential rain shower 72°F 76°F 7.9 mm 84%
03:00am Partly cloudy 71°F 70°F 0 mm 84%
06:00am Partly cloudy 73°F 69°F 0 mm 84%
09:00am Partly cloudy 71°F 71°F 0 mm 76%
12:00pm Sunny 74°F 77°F 0 mm 69%
15:00pm Partly cloudy 75°F 78°F 0 mm 61%
18:00pm Partly cloudy 73°F 77°F 0 mm 61%
21:00pm Partly cloudy 70°F 70°F 0 mm 62%
Temp Feels Precip Humidity
00:00am Partly cloudy 64°F 64°F 0 mm 56%
03:00am Clear 59°F 54°F 0 mm 62%
06:00am Sunny 66°F 53°F 0 mm 63%
09:00am Sunny 59°F 59°F 0 mm 56%
12:00pm Sunny 64°F 64°F 0 mm 50%
15:00pm Sunny 67°F 67°F 0 mm 51%
18:00pm Sunny 66°F 66°F 0 mm 56%
21:00pm Partly cloudy 64°F 64°F 0 mm 65%

Save your favorite locations, unlock more tidal information, less advertising and more...

Sign in to Tideschart with your Facebook account in one easy click (it's FREE!)